KPMU/PMU METAR and TAF weather

Enter ICAO airport designator
Station Type Date Time Source
KPMU METAR 2020/09/18 16:15 UTC NOAA

KPMU 181615Z AUTO VRB04KT 10SM CLR 25/18 A3008 RMK AO2


Station Type Date Time Source
KPMU Decoded METAR 2020/09/18 16:15 UTC NOAA

Station name not available
Sep 18, 2020 - 12:15 PM EDT / 2020.09.18 1615 UTC
Wind: Variable at 5 MPH (4 KT):0
Visibility: 10 mile(s):0
Sky conditions: clear
Temperature: 77 F (25 C)
Dew Point: 64 F (18 C)
Relative Humidity: 65%
Pressure (altimeter): 30.08 in. Hg (1018 hPa)
ob: KPMU 181615Z AUTO VRB04KT 10SM CLR 25/18 A3008 RMK AO2
cycle: 16

Station Type Date Time Source
KPMU TAF UTC NOAA

Error!

Example: see airport list